Ivanhoe, CA

8:39 AM PDT on September 02, 2014 (GMT -0700)
Fresno Yosemite International | Change Station
CLOSE
Current Station
Airport
Location: Fresno,
Elevation: 328 ft
Nearby Weather Stations

Elev 328 ft 36.78 °N, 119.72 °W | Updated 46 minutes ago

Clear
Clear
75 °F
Feels Like 75 °F
N
6
Wind Variable Wind from SE

Today
High -- | Low -- °F
--% Chance of Precip.
Yesterday
High -- | Low -- °F
Precip. -- in
6:29 AM 7:23 PM
First Quarter, 52% visible
Pressure 29.79 in
Visibility 10.0 miles
Clouds Clear
Dew Point 52 °F
Humidity 44%
Rainfall 0.00 in
Snow Depth Not available.
UV 1 out of 12
Pollen 9.20 out of 12
Ozone Good
PM2.5 Good
Flu Activity Not available.
METAR KFAT 021453Z 13005KT 10SM CLR 24/11 A2980 RMK AO2 SLP086 MTNS OBSC HZ DSNT E-S T02390111 51014

More Conditions Fewer Conditions

Pressure 29.79 in
Visibility 10.0 miles
Clouds Clear
Dew Point 52 °F
Humidity 44%
Rainfall 0.00 in
Snow Depth Not available.
UV 1 out of 12
Pollen 9.20 out of 12
Ozone Good
PM2.5 Good
Flu Activity Not available.
METAR KFAT 021453Z 13005KT 10SM CLR 24/11 A2980 RMK AO2 SLP086 MTNS OBSC HZ DSNT E-S T02390111 51014

More Conditions Fewer Conditions

10-Day Weather Forecast

Almanac

Astronomy

Sep. 02, 2014 Rise Set
Actual Time 6:29 AM PDT 7:23 PM PDT
Civil Twilight 6:02 AM PDT 7:49 PM PDT
Nautical Twilight 5:31 AM PDT 8:20 PM PDT
Astronomical Twilight 4:59 AM PDT 8:52 PM PDT
Moon 2:05 PM PDT No Moon Set
Length of Visible Light 13h 46m
Length of Day
12h 54m
Tomorrow will be 2m 14s shorter.
First Quarter, 52% of the Moon is Illuminated
Today
First Quarter
Sep 8
Full
Sep 15
Last Quarter
Sep 24
New
Oct 1
First Quarter

Today's Extremes

State Highs State Lows

Community

WunderPhotos

Upload Photos

1,749,700 photos uploaded!

Nearby

Air Quality

  Air Quality AQ Index Pollutant
Yesterday Good
OZONE
Yesterday Good
PM2.5
Current Good
PM2.5
Current Good
OZONE
Tuesday Moderate
PM2.5
Wednesday Moderate
PM2.5
Thursday Moderate
PM2.5
Friday Moderate
PM2.5
Saturday Moderate
PM2.5

Snow Depth

Station Depth Elevation
Leavitt Lake 0 in 9400 ft
Sonora Pass 0 in 8800 ft
Leavitt Meadows 1 in 7200 ft
Summit Meadow 1 in 9122 ft
Blue Lakes 0 in 8000 ft

Earthquake Activity

City Distance Mag. Time & Date
No recent earthquake activity has been reported nearby.
Minimum magnitude displayed is 2.5.

Coastal Water Temperatures

Place Temperature
No Stations Reporting

Nearby Weather Stations